sensor_id;sensor_type;location;lat;lon;timestamp;temperature;humidity
59469;DHT22;45277;52.768;18.262;2023-07-29T00:01:22;14.20;99.90
59469;DHT22;45277;52.768;18.262;2023-07-29T00:02:54;14.20;99.90
59469;DHT22;45277;52.768;18.262;2023-07-29T00:04:25;14.10;99.90
59469;DHT22;45277;52.768;18.262;2023-07-29T00:05:57;14.10;99.90
59469;DHT22;45277;52.768;18.262;2023-07-29T00:07:29;14.00;99.90
59469;DHT22;45277;52.768;18.262;2023-07-29T00:09:00;14.00;99.90
59469;DHT22;45277;52.768;18.262;2023-07-29T00:10:32;14.00;99.90
59469;DHT22;45277;52.768;18.262;2023-07-29T00:12:04;14.10;99.90
59469;DHT22;45277;52.768;18.262;2023-07-29T00:13:35;14.10;99.90
59469;DHT22;45277;52.768;18.262;2023-07-29T00:15:08;14.10;99.90
59469;DHT22;45277;52.768;18.262;2023-07-29T00:16:40;14.20;99.90
59469;DHT22;45277;52.768;18.262;2023-07-29T00:18:11;14.30;99.90
59469;DHT22;45277;52.768;18.262;2023-07-29T00:19:42;14.20;99.90
59469;DHT22;45277;52.768;18.262;2023-07-29T00:21:14;14.20;99.90
59469;DHT22;45277;52.768;18.262;2023-07-29T00:22:45;14.20;99.90
59469;DHT22;45277;52.768;18.262;2023-07-29T00:24:16;14.20;99.90
59469;DHT22;45277;52.768;18.262;2023-07-29T00:25:48;14.20;99.90
59469;DHT22;45277;52.768;18.262;2023-07-29T00:27:19;14.30;99.90
59469;DHT22;45277;52.768;18.262;2023-07-29T00:28:51;14.30;99.90
59469;DHT22;45277;52.768;18.262;2023-07-29T00:30:22;14.30;99.90
59469;DHT22;45277;52.768;18.262;2023-07-29T00:31:54;14.20;99.90
59469;DHT22;45277;52.768;18.262;2023-07-29T00:33:25;14.20;99.90
59469;DHT22;45277;52.768;18.262;2023-07-29T00:34:57;14.20;99.90
59469;DHT22;45277;52.768;18.262;2023-07-29T00:36:28;14.20;99.90
59469;DHT22;45277;52.768;18.262;2023-07-29T00:37:59;14.30;99.90
59469;DHT22;45277;52.768;18.262;2023-07-29T00:39:32;14.20;99.90
59469;DHT22;45277;52.768;18.262;2023-07-29T00:41:03;14.20;99.90
59469;DHT22;45277;52.768;18.262;2023-07-29T00:42:34;14.20;99.90
59469;DHT22;45277;52.768;18.262;2023-07-29T00:44:06;14.20;99.90
59469;DHT22;45277;52.768;18.262;2023-07-29T00:45:38;14.10;99.90
59469;DHT22;45277;52.768;18.262;2023-07-29T00:47:11;14.00;99.90
59469;DHT22;45277;52.768;18.262;2023-07-29T00:48:45;14.00;99.90
59469;DHT22;45277;52.768;18.262;2023-07-29T00:50:17;14.00;99.90
59469;DHT22;45277;52.768;18.262;2023-07-29T00:51:48;13.90;99.90
59469;DHT22;45277;52.768;18.262;2023-07-29T00:53:20;13.90;99.90
59469;DHT22;45277;52.768;18.262;2023-07-29T00:54:52;13.80;99.90
59469;DHT22;45277;52.768;18.262;2023-07-29T00:56:23;13.80;99.90
59469;DHT22;45277;52.768;18.262;2023-07-29T00:57:55;13.80;99.90
59469;DHT22;45277;52.768;18.262;2023-07-29T00:59:27;13.70;99.90
59469;DHT22;45277;52.768;18.262;2023-07-29T01:00:59;13.70;99.90
59469;DHT22;45277;52.768;18.262;2023-07-29T01:02:31;13.70;99.90
59469;DHT22;45277;52.768;18.262;2023-07-29T01:04:03;13.70;99.90
59469;DHT22;45277;52.768;18.262;2023-07-29T01:06:01;13.70;99.90
59469;DHT22;45277;52.768;18.262;2023-07-29T01:07:51;13.70;99.90
59469;DHT22;45277;52.768;18.262;2023-07-29T01:10:05;13.80;99.90
59469;DHT22;45277;52.768;18.262;2023-07-29T01:11:43;13.80;99.90
59469;DHT22;45277;52.768;18.262;2023-07-29T01:13:37;13.90;99.90
59469;DHT22;45277;52.768;18.262;2023-07-29T01:15:15;13.90;99.90
59469;DHT22;45277;52.768;18.262;2023-07-29T01:16:52;13.80;99.90
59469;DHT22;45277;52.768;18.262;2023-07-29T01:18:30;13.90;99.90
59469;DHT22;45277;52.768;18.262;2023-07-29T01:20:08;13.90;99.90
59469;DHT22;45277;52.768;18.262;2023-07-29T01:21:41;14.00;99.90
59469;DHT22;45277;52.768;18.262;2023-07-29T01:23:13;13.90;99.90
59469;DHT22;45277;52.768;18.262;2023-07-29T01:24:44;13.90;99.90
59469;DHT22;45277;52.768;18.262;2023-07-29T01:26:15;13.80;99.90
59469;DHT22;45277;52.768;18.262;2023-07-29T01:27:50;13.80;99.90
59469;DHT22;45277;52.768;18.262;2023-07-29T01:29:26;13.80;99.90
59469;DHT22;45277;52.768;18.262;2023-07-29T01:31:03;13.80;99.90
59469;DHT22;45277;52.768;18.262;2023-07-29T01:32:59;13.80;99.90
59469;DHT22;45277;52.768;18.262;2023-07-29T01:34:44;13.70;99.90
59469;DHT22;45277;52.768;18.262;2023-07-29T01:36:21;13.70;99.90
59469;DHT22;45277;52.768;18.262;2023-07-29T01:38:03;13.60;99.90
59469;DHT22;45277;52.768;18.262;2023-07-29T01:39:37;13.50;99.90
59469;DHT22;45277;52.768;18.262;2023-07-29T01:41:09;13.40;99.90
59469;DHT22;45277;52.768;18.262;2023-07-29T01:42:41;13.40;99.90
59469;DHT22;45277;52.768;18.262;2023-07-29T01:44:13;13.40;99.90
59469;DHT22;45277;52.768;18.262;2023-07-29T01:45:45;13.40;99.90
59469;DHT22;45277;52.768;18.262;2023-07-29T01:47:18;13.40;99.90
59469;DHT22;45277;52.768;18.262;2023-07-29T01:48:49;13.30;99.90
59469;DHT22;45277;52.768;18.262;2023-07-29T01:50:20;13.20;99.90
59469;DHT22;45277;52.768;18.262;2023-07-29T01:51:52;13.20;99.90
59469;DHT22;45277;52.768;18.262;2023-07-29T01:53:24;13.10;99.90
59469;DHT22;45277;52.768;18.262;2023-07-29T01:54:55;13.10;99.90
59469;DHT22;45277;52.768;18.262;2023-07-29T01:56:27;13.00;99.90
59469;DHT22;45277;52.768;18.262;2023-07-29T01:57:58;13.00;99.90
59469;DHT22;45277;52.768;18.262;2023-07-29T01:59:29;13.00;99.90
59469;DHT22;45277;52.768;18.262;2023-07-29T02:01:01;13.10;99.90
59469;DHT22;45277;52.768;18.262;2023-07-29T02:02:32;13.10;99.90
59469;DHT22;45277;52.768;18.262;2023-07-29T02:04:04;13.10;99.90
59469;DHT22;45277;52.768;18.262;2023-07-29T02:05:35;13.00;99.90
59469;DHT22;45277;52.768;18.262;2023-07-29T02:07:06;13.00;99.90
59469;DHT22;45277;52.768;18.262;2023-07-29T02:08:38;13.00;99.90
59469;DHT22;45277;52.768;18.262;2023-07-29T02:10:12;12.90;99.90
59469;DHT22;45277;52.768;18.262;2023-07-29T02:11:43;12.90;99.90
59469;DHT22;45277;52.768;18.262;2023-07-29T02:13:15;12.90;99.90
59469;DHT22;45277;52.768;18.262;2023-07-29T02:14:46;12.80;99.90
59469;DHT22;45277;52.768;18.262;2023-07-29T02:16:18;12.80;99.90
59469;DHT22;45277;52.768;18.262;2023-07-29T02:17:50;12.80;99.90
59469;DHT22;45277;52.768;18.262;2023-07-29T02:19:22;12.90;99.90
59469;DHT22;45277;52.768;18.262;2023-07-29T02:20:53;13.00;99.90
59469;DHT22;45277;52.768;18.262;2023-07-29T02:22:25;13.10;99.90
59469;DHT22;45277;52.768;18.262;2023-07-29T02:23:56;13.10;99.90
59469;DHT22;45277;52.768;18.262;2023-07-29T02:25:28;13.10;99.90
59469;DHT22;45277;52.768;18.262;2023-07-29T02:26:59;13.10;99.90
59469;DHT22;45277;52.768;18.262;2023-07-29T02:28:31;13.10;99.90
59469;DHT22;45277;52.768;18.262;2023-07-29T02:30:02;13.10;99.90
59469;DHT22;45277;52.768;18.262;2023-07-29T02:31:34;13.00;99.90
59469;DHT22;45277;52.768;18.262;2023-07-29T02:33:06;12.90;99.90
59469;DHT22;45277;52.768;18.262;2023-07-29T02:34:37;12.90;99.90
59469;DHT22;45277;52.768;18.262;2023-07-29T02:36:08;12.80;99.90
59469;DHT22;45277;52.768;18.262;2023-07-29T02:37:40;12.70;99.90
59469;DHT22;45277;52.768;18.262;2023-07-29T02:39:11;12.70;99.90
59469;DHT22;45277;52.768;18.262;2023-07-29T02:40:42;12.60;99.90
59469;DHT22;45277;52.768;18.262;2023-07-29T02:42:14;12.60;99.90
59469;DHT22;45277;52.768;18.262;2023-07-29T02:43:49;12.50;99.90
59469;DHT22;45277;52.768;18.262;2023-07-29T02:45:20;12.40;99.90
59469;DHT22;45277;52.768;18.262;2023-07-29T02:46:52;12.30;99.90
59469;DHT22;45277;52.768;18.262;2023-07-29T02:48:25;12.20;99.90
59469;DHT22;45277;52.768;18.262;2023-07-29T02:49:56;12.10;99.90
59469;DHT22;45277;52.768;18.262;2023-07-29T02:51:28;12.10;99.90
59469;DHT22;45277;52.768;18.262;2023-07-29T02:52:59;12.10;99.90
59469;DHT22;45277;52.768;18.262;2023-07-29T02:54:32;12.00;99.90
59469;DHT22;45277;52.768;18.262;2023-07-29T02:56:04;12.00;99.90
59469;DHT22;45277;52.768;18.262;2023-07-29T02:57:37;11.90;99.90
59469;DHT22;45277;52.768;18.262;2023-07-29T02:59:08;11.90;99.90
59469;DHT22;45277;52.768;18.262;2023-07-29T03:00:40;11.80;99.90
59469;DHT22;45277;52.768;18.262;2023-07-29T03:02:14;11.80;99.90
59469;DHT22;45277;52.768;18.262;2023-07-29T03:03:47;11.80;99.90
59469;DHT22;45277;52.768;18.262;2023-07-29T03:05:18;11.80;99.90
59469;DHT22;45277;52.768;18.262;2023-07-29T03:06:49;11.90;99.90
59469;DHT22;45277;52.768;18.262;2023-07-29T03:08:21;11.90;99.90
59469;DHT22;45277;52.768;18.262;2023-07-29T03:09:52;12.00;99.90
59469;DHT22;45277;52.768;18.262;2023-07-29T03:11:24;12.00;99.90
59469;DHT22;45277;52.768;18.262;2023-07-29T03:12:55;12.00;99.90
59469;DHT22;45277;52.768;18.262;2023-07-29T03:14:27;12.10;99.90
59469;DHT22;45277;52.768;18.262;2023-07-29T03:16:27;12.10;99.90
59469;DHT22;45277;52.768;18.262;2023-07-29T03:17:59;12.30;99.90
59469;DHT22;45277;52.768;18.262;2023-07-29T03:19:30;12.40;99.90
59469;DHT22;45277;52.768;18.262;2023-07-29T03:21:02;12.40;99.90
59469;DHT22;45277;52.768;18.262;2023-07-29T03:22:33;12.50;99.90
59469;DHT22;45277;52.768;18.262;2023-07-29T03:24:05;12.50;99.90
59469;DHT22;45277;52.768;18.262;2023-07-29T03:25:37;12.50;99.90
59469;DHT22;45277;52.768;18.262;2023-07-29T03:27:09;12.60;99.90
59469;DHT22;45277;52.768;18.262;2023-07-29T03:28:42;12.60;99.90
59469;DHT22;45277;52.768;18.262;2023-07-29T03:30:14;12.60;99.90
59469;DHT22;45277;52.768;18.262;2023-07-29T03:31:45;12.70;99.90
59469;DHT22;45277;52.768;18.262;2023-07-29T03:33:16;12.70;99.90
59469;DHT22;45277;52.768;18.262;2023-07-29T03:34:48;12.80;99.90
59469;DHT22;45277;52.768;18.262;2023-07-29T03:36:21;12.80;99.90
59469;DHT22;45277;52.768;18.262;2023-07-29T03:37:52;12.80;99.90
59469;DHT22;45277;52.768;18.262;2023-07-29T03:39:24;12.90;99.90
59469;DHT22;45277;52.768;18.262;2023-07-29T03:40:55;12.90;99.90
59469;DHT22;45277;52.768;18.262;2023-07-29T03:42:27;12.80;99.90
59469;DHT22;45277;52.768;18.262;2023-07-29T03:43:59;12.80;99.90
59469;DHT22;45277;52.768;18.262;2023-07-29T03:45:31;12.90;99.90
59469;DHT22;45277;52.768;18.262;2023-07-29T03:47:02;12.90;99.90
59469;DHT22;45277;52.768;18.262;2023-07-29T03:48:34;12.90;99.90
59469;DHT22;45277;52.768;18.262;2023-07-29T03:50:05;12.90;99.90
59469;DHT22;45277;52.768;18.262;2023-07-29T03:51:37;13.00;99.90
59469;DHT22;45277;52.768;18.262;2023-07-29T03:53:08;13.00;99.90
59469;DHT22;45277;52.768;18.262;2023-07-29T03:54:40;13.10;99.90
59469;DHT22;45277;52.768;18.262;2023-07-29T03:56:12;13.20;99.90
59469;DHT22;45277;52.768;18.262;2023-07-29T03:57:43;13.30;99.90
59469;DHT22;45277;52.768;18.262;2023-07-29T03:59:15;13.40;99.90
59469;DHT22;45277;52.768;18.262;2023-07-29T04:00:46;13.40;99.90
59469;DHT22;45277;52.768;18.262;2023-07-29T04:02:18;13.50;99.90
59469;DHT22;45277;52.768;18.262;2023-07-29T04:03:49;13.50;99.90
59469;DHT22;45277;52.768;18.262;2023-07-29T04:05:23;13.60;99.90
59469;DHT22;45277;52.768;18.262;2023-07-29T04:06:54;13.60;99.90
59469;DHT22;45277;52.768;18.262;2023-07-29T04:08:26;13.70;99.90
59469;DHT22;45277;52.768;18.262;2023-07-29T04:09:58;13.70;99.90
59469;DHT22;45277;52.768;18.262;2023-07-29T04:11:29;13.70;99.90
59469;DHT22;45277;52.768;18.262;2023-07-29T04:13:01;13.70;99.90
59469;DHT22;45277;52.768;18.262;2023-07-29T04:14:32;13.70;99.90
59469;DHT22;45277;52.768;18.262;2023-07-29T04:16:04;13.80;99.90
59469;DHT22;45277;52.768;18.262;2023-07-29T04:17:36;13.80;99.90
59469;DHT22;45277;52.768;18.262;2023-07-29T04:19:08;13.80;99.90
59469;DHT22;45277;52.768;18.262;2023-07-29T04:20:39;13.90;99.90
59469;DHT22;45277;52.768;18.262;2023-07-29T04:22:10;13.90;99.90
59469;DHT22;45277;52.768;18.262;2023-07-29T04:23:42;14.00;99.90
59469;DHT22;45277;52.768;18.262;2023-07-29T04:25:13;14.10;99.90
59469;DHT22;45277;52.768;18.262;2023-07-29T04:26:44;14.20;99.90
59469;DHT22;45277;52.768;18.262;2023-07-29T04:28:16;14.30;99.90
59469;DHT22;45277;52.768;18.262;2023-07-29T04:29:47;14.40;99.90
59469;DHT22;45277;52.768;18.262;2023-07-29T04:31:19;14.50;99.90
59469;DHT22;45277;52.768;18.262;2023-07-29T04:32:50;14.60;99.90
59469;DHT22;45277;52.768;18.262;2023-07-29T04:34:21;14.60;99.90
59469;DHT22;45277;52.768;18.262;2023-07-29T04:35:53;14.70;99.90
59469;DHT22;45277;52.768;18.262;2023-07-29T04:37:24;14.80;99.90
59469;DHT22;45277;52.768;18.262;2023-07-29T04:38:56;14.80;99.90
59469;DHT22;45277;52.768;18.262;2023-07-29T04:40:27;14.80;99.90
59469;DHT22;45277;52.768;18.262;2023-07-29T04:41:58;14.90;99.90
59469;DHT22;45277;52.768;18.262;2023-07-29T04:43:31;14.90;99.90
59469;DHT22;45277;52.768;18.262;2023-07-29T04:45:03;14.90;99.90
59469;DHT22;45277;52.768;18.262;2023-07-29T04:46:37;15.00;99.90
59469;DHT22;45277;52.768;18.262;2023-07-29T04:48:09;15.00;99.90
59469;DHT22;45277;52.768;18.262;2023-07-29T04:49:40;15.10;99.90
59469;DHT22;45277;52.768;18.262;2023-07-29T04:51:12;15.20;99.90
59469;DHT22;45277;52.768;18.262;2023-07-29T04:52:43;15.30;99.90
59469;DHT22;45277;52.768;18.262;2023-07-29T04:54:14;15.40;99.90
59469;DHT22;45277;52.768;18.262;2023-07-29T04:55:46;15.40;99.90
59469;DHT22;45277;52.768;18.262;2023-07-29T04:57:17;15.50;99.90
59469;DHT22;45277;52.768;18.262;2023-07-29T04:58:48;15.50;99.90
59469;DHT22;45277;52.768;18.262;2023-07-29T05:00:20;15.60;99.90
59469;DHT22;45277;52.768;18.262;2023-07-29T05:01:51;15.70;99.90
59469;DHT22;45277;52.768;18.262;2023-07-29T05:03:22;15.70;99.90
59469;DHT22;45277;52.768;18.262;2023-07-29T05:04:54;15.70;99.90
59469;DHT22;45277;52.768;18.262;2023-07-29T05:06:25;15.70;99.90
59469;DHT22;45277;52.768;18.262;2023-07-29T05:07:56;15.80;99.90
59469;DHT22;45277;52.768;18.262;2023-07-29T05:09:28;15.80;99.90
59469;DHT22;45277;52.768;18.262;2023-07-29T05:10:59;15.90;99.90
59469;DHT22;45277;52.768;18.262;2023-07-29T05:12:30;15.90;99.90
59469;DHT22;45277;52.768;18.262;2023-07-29T05:14:04;15.90;99.90
59469;DHT22;45277;52.768;18.262;2023-07-29T05:15:37;16.00;99.90
59469;DHT22;45277;52.768;18.262;2023-07-29T05:17:08;16.00;99.90
59469;DHT22;45277;52.768;18.262;2023-07-29T05:18:40;16.00;99.90
59469;DHT22;45277;52.768;18.262;2023-07-29T05:20:11;16.10;99.90
59469;DHT22;45277;52.768;18.262;2023-07-29T05:21:42;16.10;99.90
59469;DHT22;45277;52.768;18.262;2023-07-29T05:23:14;16.20;99.90
59469;DHT22;45277;52.768;18.262;2023-07-29T05:24:45;16.30;99.90
59469;DHT22;45277;52.768;18.262;2023-07-29T05:26:17;16.30;99.90
59469;DHT22;45277;52.768;18.262;2023-07-29T05:27:48;16.40;99.90
59469;DHT22;45277;52.768;18.262;2023-07-29T05:29:19;16.40;99.90
59469;DHT22;45277;52.768;18.262;2023-07-29T05:30:50;16.50;99.90
59469;DHT22;45277;52.768;18.262;2023-07-29T05:32:22;16.60;99.90
59469;DHT22;45277;52.768;18.262;2023-07-29T05:33:53;16.70;99.90
59469;DHT22;45277;52.768;18.262;2023-07-29T05:35:25;16.70;99.90
59469;DHT22;45277;52.768;18.262;2023-07-29T05:36:56;16.80;99.90
59469;DHT22;45277;52.768;18.262;2023-07-29T05:38:27;16.80;99.90
59469;DHT22;45277;52.768;18.262;2023-07-29T05:39:59;16.90;99.90
59469;DHT22;45277;52.768;18.262;2023-07-29T05:41:30;17.00;99.90
59469;DHT22;45277;52.768;18.262;2023-07-29T05:43:01;17.00;99.90
59469;DHT22;45277;52.768;18.262;2023-07-29T05:44:34;17.10;99.90
59469;DHT22;45277;52.768;18.262;2023-07-29T05:46:05;17.20;99.90
59469;DHT22;45277;52.768;18.262;2023-07-29T05:47:37;17.30;99.90
59469;DHT22;45277;52.768;18.262;2023-07-29T05:49:08;17.40;99.90
59469;DHT22;45277;52.768;18.262;2023-07-29T05:50:40;17.50;99.90
59469;DHT22;45277;52.768;18.262;2023-07-29T05:52:11;17.50;99.90
59469;DHT22;45277;52.768;18.262;2023-07-29T05:53:42;17.70;99.90
59469;DHT22;45277;52.768;18.262;2023-07-29T05:55:14;17.70;99.90
59469;DHT22;45277;52.768;18.262;2023-07-29T05:56:45;17.70;99.90
59469;DHT22;45277;52.768;18.262;2023-07-29T05:58:16;17.80;99.90
59469;DHT22;45277;52.768;18.262;2023-07-29T05:59:48;17.90;99.90
59469;DHT22;45277;52.768;18.262;2023-07-29T06:01:19;18.00;99.90
59469;DHT22;45277;52.768;18.262;2023-07-29T06:02:52;18.10;99.90
59469;DHT22;45277;52.768;18.262;2023-07-29T06:04:24;18.20;99.90
59469;DHT22;45277;52.768;18.262;2023-07-29T06:05:55;18.20;99.90
59469;DHT22;45277;52.768;18.262;2023-07-29T06:07:26;18.40;99.90
59469;DHT22;45277;52.768;18.262;2023-07-29T06:09:01;18.40;99.90
59469;DHT22;45277;52.768;18.262;2023-07-29T06:10:32;18.50;99.90
59469;DHT22;45277;52.768;18.262;2023-07-29T06:12:03;18.50;99.90
59469;DHT22;45277;52.768;18.262;2023-07-29T06:13:35;18.60;99.90
59469;DHT22;45277;52.768;18.262;2023-07-29T06:15:07;18.70;99.90
59469;DHT22;45277;52.768;18.262;2023-07-29T06:16:38;18.70;99.90
59469;DHT22;45277;52.768;18.262;2023-07-29T06:18:10;18.70;99.90
59469;DHT22;45277;52.768;18.262;2023-07-29T06:19:41;18.80;99.90
59469;DHT22;45277;52.768;18.262;2023-07-29T06:21:13;18.80;99.90
59469;DHT22;45277;52.768;18.262;2023-07-29T06:22:48;19.00;99.90
59469;DHT22;45277;52.768;18.262;2023-07-29T06:24:19;19.10;99.90
59469;DHT22;45277;52.768;18.262;2023-07-29T06:25:50;19.10;99.90
59469;DHT22;45277;52.768;18.262;2023-07-29T06:27:22;19.10;99.90
59469;DHT22;45277;52.768;18.262;2023-07-29T06:28:53;19.30;99.90
59469;DHT22;45277;52.768;18.262;2023-07-29T06:30:25;19.50;99.90
59469;DHT22;45277;52.768;18.262;2023-07-29T06:31:59;19.60;99.90
59469;DHT22;45277;52.768;18.262;2023-07-29T06:33:31;19.70;99.90
59469;DHT22;45277;52.768;18.262;2023-07-29T06:35:03;19.80;99.90
59469;DHT22;45277;52.768;18.262;2023-07-29T06:36:34;20.00;99.90
59469;DHT22;45277;52.768;18.262;2023-07-29T06:38:06;20.20;99.90
59469;DHT22;45277;52.768;18.262;2023-07-29T06:39:37;20.30;99.90
59469;DHT22;45277;52.768;18.262;2023-07-29T06:41:09;20.40;99.90
59469;DHT22;45277;52.768;18.262;2023-07-29T06:42:40;20.40;99.90
59469;DHT22;45277;52.768;18.262;2023-07-29T06:44:12;20.40;99.90
59469;DHT22;45277;52.768;18.262;2023-07-29T06:45:43;20.40;99.90
59469;DHT22;45277;52.768;18.262;2023-07-29T06:47:15;20.30;99.90
59469;DHT22;45277;52.768;18.262;2023-07-29T06:48:47;20.30;99.90
59469;DHT22;45277;52.768;18.262;2023-07-29T06:50:18;20.30;99.90
59469;DHT22;45277;52.768;18.262;2023-07-29T06:51:50;20.30;99.90
59469;DHT22;45277;52.768;18.262;2023-07-29T06:53:21;20.30;99.90
59469;DHT22;45277;52.768;18.262;2023-07-29T06:54:54;20.30;99.90
59469;DHT22;45277;52.768;18.262;2023-07-29T06:56:25;20.40;99.90
59469;DHT22;45277;52.768;18.262;2023-07-29T06:57:56;20.40;99.90
59469;DHT22;45277;52.768;18.262;2023-07-29T06:59:28;20.40;99.90
59469;DHT22;45277;52.768;18.262;2023-07-29T07:00:59;20.50;99.90
59469;DHT22;45277;52.768;18.262;2023-07-29T07:02:31;20.60;99.90
59469;DHT22;45277;52.768;18.262;2023-07-29T07:04:03;20.80;99.90
59469;DHT22;45277;52.768;18.262;2023-07-29T07:05:35;20.70;99.90
59469;DHT22;45277;52.768;18.262;2023-07-29T07:07:06;20.80;99.90
59469;DHT22;45277;52.768;18.262;2023-07-29T07:08:38;20.80;99.90
59469;DHT22;45277;52.768;18.262;2023-07-29T07:10:09;20.80;99.90
59469;DHT22;45277;52.768;18.262;2023-07-29T07:11:41;21.00;99.90
59469;DHT22;45277;52.768;18.262;2023-07-29T07:13:12;21.10;99.90
59469;DHT22;45277;52.768;18.262;2023-07-29T07:14:44;21.00;99.90
59469;DHT22;45277;52.768;18.262;2023-07-29T07:16:15;21.00;99.90
59469;DHT22;45277;52.768;18.262;2023-07-29T07:17:47;21.20;99.90
59469;DHT22;45277;52.768;18.262;2023-07-29T07:19:18;21.30;99.90
59469;DHT22;45277;52.768;18.262;2023-07-29T07:20:50;21.40;99.90
59469;DHT22;45277;52.768;18.262;2023-07-29T07:22:22;21.40;99.90
59469;DHT22;45277;52.768;18.262;2023-07-29T07:23:54;21.50;99.90
59469;DHT22;45277;52.768;18.262;2023-07-29T07:25:26;21.50;99.90
59469;DHT22;45277;52.768;18.262;2023-07-29T07:26:58;21.60;99.90
59469;DHT22;45277;52.768;18.262;2023-07-29T07:28:29;21.80;99.90
59469;DHT22;45277;52.768;18.262;2023-07-29T07:30:01;21.90;99.90
59469;DHT22;45277;52.768;18.262;2023-07-29T07:31:33;22.10;99.90
59469;DHT22;45277;52.768;18.262;2023-07-29T07:33:06;22.20;99.90
59469;DHT22;45277;52.768;18.262;2023-07-29T07:34:37;22.20;99.90
59469;DHT22;45277;52.768;18.262;2023-07-29T07:36:09;22.20;99.90
59469;DHT22;45277;52.768;18.262;2023-07-29T07:37:40;22.20;99.90
59469;DHT22;45277;52.768;18.262;2023-07-29T07:39:12;22.20;99.90
59469;DHT22;45277;52.768;18.262;2023-07-29T07:40:52;22.20;99.90
59469;DHT22;45277;52.768;18.262;2023-07-29T07:42:26;22.30;99.90
59469;DHT22;45277;52.768;18.262;2023-07-29T07:43:57;22.40;99.90
59469;DHT22;45277;52.768;18.262;2023-07-29T07:45:29;22.40;99.90
59469;DHT22;45277;52.768;18.262;2023-07-29T07:47:00;22.50;99.90
59469;DHT22;45277;52.768;18.262;2023-07-29T07:48:31;22.60;99.90
59469;DHT22;45277;52.768;18.262;2023-07-29T07:50:05;22.70;99.90
59469;DHT22;45277;52.768;18.262;2023-07-29T07:51:36;22.90;99.90
59469;DHT22;45277;52.768;18.262;2023-07-29T07:53:07;22.90;99.90
59469;DHT22;45277;52.768;18.262;2023-07-29T07:54:39;23.00;99.90
59469;DHT22;45277;52.768;18.262;2023-07-29T07:56:11;23.10;99.90
59469;DHT22;45277;52.768;18.262;2023-07-29T07:57:42;23.20;99.90
59469;DHT22;45277;52.768;18.262;2023-07-29T07:59:14;23.20;99.90
59469;DHT22;45277;52.768;18.262;2023-07-29T08:00:45;23.40;99.90
59469;DHT22;45277;52.768;18.262;2023-07-29T08:02:17;23.40;94.40
59469;DHT22;45277;52.768;18.262;2023-07-29T08:03:49;23.60;99.90
59469;DHT22;45277;52.768;18.262;2023-07-29T08:05:21;23.60;75.70
59469;DHT22;45277;52.768;18.262;2023-07-29T08:06:52;23.50;79.20
59469;DHT22;45277;52.768;18.262;2023-07-29T08:08:25;23.60;73.50
59469;DHT22;45277;52.768;18.262;2023-07-29T08:09:56;23.60;65.10
59469;DHT22;45277;52.768;18.262;2023-07-29T08:11:28;23.60;77.20
59469;DHT22;45277;52.768;18.262;2023-07-29T08:12:59;23.50;86.00
59469;DHT22;45277;52.768;18.262;2023-07-29T08:14:31;23.50;52.80
59469;DHT22;45277;52.768;18.262;2023-07-29T08:16:02;23.40;60.10
59469;DHT22;45277;52.768;18.262;2023-07-29T08:17:34;23.50;53.60
59469;DHT22;45277;52.768;18.262;2023-07-29T08:19:06;23.60;60.60
59469;DHT22;45277;52.768;18.262;2023-07-29T08:20:40;23.80;77.70
59469;DHT22;45277;52.768;18.262;2023-07-29T08:22:12;23.90;62.00
59469;DHT22;45277;52.768;18.262;2023-07-29T08:23:43;24.00;64.00
59469;DHT22;45277;52.768;18.262;2023-07-29T08:25:15;24.00;57.50
59469;DHT22;45277;52.768;18.262;2023-07-29T08:26:48;24.20;42.60
59469;DHT22;45277;52.768;18.262;2023-07-29T08:28:19;24.50;52.60
59469;DHT22;45277;52.768;18.262;2023-07-29T08:29:51;24.80;43.90
59469;DHT22;45277;52.768;18.262;2023-07-29T08:31:25;25.00;23.50
59469;DHT22;45277;52.768;18.262;2023-07-29T08:32:56;24.90;24.70
59469;DHT22;45277;52.768;18.262;2023-07-29T08:34:28;25.00;26.20
59469;DHT22;45277;52.768;18.262;2023-07-29T08:36:00;25.10;22.10
59469;DHT22;45277;52.768;18.262;2023-07-29T08:37:32;24.90;20.50
59469;DHT22;45277;52.768;18.262;2023-07-29T08:39:04;24.60;19.80
59469;DHT22;45277;52.768;18.262;2023-07-29T08:40:40;24.40;17.80
59469;DHT22;45277;52.768;18.262;2023-07-29T08:42:13;24.60;19.40
59469;DHT22;45277;52.768;18.262;2023-07-29T08:44:12;24.70;19.90
59469;DHT22;45277;52.768;18.262;2023-07-29T08:45:44;25.00;24.30
59469;DHT22;45277;52.768;18.262;2023-07-29T08:47:16;25.30;22.80
59469;DHT22;45277;52.768;18.262;2023-07-29T08:48:50;25.50;11.00
59469;DHT22;45277;52.768;18.262;2023-07-29T08:50:22;25.80;10.90
59469;DHT22;45277;52.768;18.262;2023-07-29T08:51:56;25.50;1.00
59469;DHT22;45277;52.768;18.262;2023-07-29T08:53:28;25.60;1.00
59469;DHT22;45277;52.768;18.262;2023-07-29T08:55:01;25.40;5.10
59469;DHT22;45277;52.768;18.262;2023-07-29T08:56:32;25.20;5.20
59469;DHT22;45277;52.768;18.262;2023-07-29T08:58:04;25.30;1.50
59469;DHT22;45277;52.768;18.262;2023-07-29T08:59:36;25.60;10.60
59469;DHT22;45277;52.768;18.262;2023-07-29T09:01:08;25.80;8.10
59469;DHT22;45277;52.768;18.262;2023-07-29T09:02:40;26.00;5.30
59469;DHT22;45277;52.768;18.262;2023-07-29T09:04:12;26.10;1.00
59469;DHT22;45277;52.768;18.262;2023-07-29T09:05:43;26.20;1.00
59469;DHT22;45277;52.768;18.262;2023-07-29T09:07:15;25.90;1.00
59469;DHT22;45277;52.768;18.262;2023-07-29T09:08:49;25.90;1.00
59469;DHT22;45277;52.768;18.262;2023-07-29T09:10:22;26.00;1.00
59469;DHT22;45277;52.768;18.262;2023-07-29T09:11:57;25.90;1.00
59469;DHT22;45277;52.768;18.262;2023-07-29T09:13:29;26.20;1.00
59469;DHT22;45277;52.768;18.262;2023-07-29T09:15:00;26.20;1.00
59469;DHT22;45277;52.768;18.262;2023-07-29T09:16:32;26.20;1.00
59469;DHT22;45277;52.768;18.262;2023-07-29T09:18:17;26.20;1.00
59469;DHT22;45277;52.768;18.262;2023-07-29T09:19:49;26.00;1.00
59469;DHT22;45277;52.768;18.262;2023-07-29T09:21:25;26.10;1.00
59469;DHT22;45277;52.768;18.262;2023-07-29T09:22:58;26.00;1.00
59469;DHT22;45277;52.768;18.262;2023-07-29T09:24:33;25.80;1.00
59469;DHT22;45277;52.768;18.262;2023-07-29T09:26:05;25.70;1.00
59469;DHT22;45277;52.768;18.262;2023-07-29T09:27:37;25.70;1.00
59469;DHT22;45277;52.768;18.262;2023-07-29T09:29:10;25.90;1.00
59469;DHT22;45277;52.768;18.262;2023-07-29T09:30:44;26.10;1.00
59469;DHT22;45277;52.768;18.262;2023-07-29T09:32:20;26.10;1.00
59469;DHT22;45277;52.768;18.262;2023-07-29T09:33:57;26.40;1.00
59469;DHT22;45277;52.768;18.262;2023-07-29T09:35:32;26.60;1.00
59469;DHT22;45277;52.768;18.262;2023-07-29T09:37:05;26.30;1.00